Ipplepen, United Kingdom
Current Conditions -  °F | °C
As of 5:50 AM on Thursday 29 Jan 2015 (Local Time) from EGTE Reporting Station
Light Rain Light Rain  
Wind Chill: 32°   Ceiling: Unl
Heat Index: 39°   Visibility: 6mi
Dew Point: 36°   Wind: 13mph
Humidity: 87%   Direction: 250°WSW
Pressure: 29.35"   Gusts: NA
Location:  50.49°N, 3.64°W
Report Text: EGTE 290550Z 25011KT 9999 -RA FEW010 SCT022 04/02 Q0994
Loading
Personal Weather Stations






























Interactive Weather Map New forecast layout! Learn more

10-Day Weather Forecast

Advertisements
Track Severe Weather on mobile